createdAt,value
2022-12-05T00:01:46.068Z,15.68
2022-12-05T00:04:15.578Z,13.68
2022-12-05T00:06:43.681Z,14.18
2022-12-05T00:09:13.885Z,15.05
2022-12-05T00:11:43.982Z,14.40
2022-12-05T00:14:13.192Z,14.57
2022-12-05T00:16:43.392Z,15.02
2022-12-05T00:19:15.207Z,15.20
2022-12-05T00:21:43.487Z,15.82
2022-12-05T00:24:14.317Z,15.50
2022-12-05T00:26:42.370Z,13.93
2022-12-05T00:29:10.136Z,14.93
2022-12-05T00:31:37.864Z,14.50
2022-12-05T00:34:05.534Z,13.63
2022-12-05T00:36:36.256Z,13.48
2022-12-05T00:39:07.451Z,13.43
2022-12-05T00:41:35.150Z,12.30
2022-12-05T00:44:03.868Z,14.52
2022-12-05T00:46:33.474Z,12.48
2022-12-05T00:49:02.616Z,13.27
2022-12-05T00:51:32.693Z,13.05
2022-12-05T00:54:04.648Z,11.52
2022-12-05T00:56:33.706Z,13.27
2022-12-05T00:59:02.778Z,14.95
2022-12-05T01:01:33.590Z,13.88
2022-12-05T01:04:04.032Z,13.60
2022-12-05T01:06:31.711Z,12.88
2022-12-05T01:09:01.132Z,12.63
2022-12-05T01:11:30.112Z,14.90
2022-12-05T01:13:58.031Z,12.95
2022-12-05T01:16:28.281Z,13.68
2022-12-05T01:18:56.105Z,13.82
2022-12-05T01:21:24.324Z,13.35
2022-12-05T01:23:52.193Z,12.73
2022-12-05T01:26:23.528Z,12.20
2022-12-05T01:28:52.092Z,13.75
2022-12-05T01:31:23.850Z,11.70
2022-12-05T01:33:52.556Z,12.43
2022-12-05T01:36:22.852Z,13.05
2022-12-05T01:38:51.003Z,13.57
2022-12-05T01:41:22.999Z,12.65
2022-12-05T01:43:58.595Z,11.88
2022-12-05T01:46:27.896Z,13.45
2022-12-05T01:49:02.306Z,13.52
2022-12-05T01:51:31.586Z,11.65
2022-12-05T01:54:00.648Z,12.02
2022-12-05T01:56:29.973Z,11.65
2022-12-05T01:58:58.004Z,11.52
2022-12-05T02:01:25.735Z,10.10
2022-12-05T02:03:57.100Z,10.75
2022-12-05T02:06:25.979Z,11.63
2022-12-05T02:08:54.712Z,10.93
2022-12-05T02:11:24.289Z,11.18
2022-12-05T02:14:06.675Z,11.85
2022-12-05T02:16:47.108Z,10.95
2022-12-05T02:19:40.207Z,11.25
2022-12-05T02:22:36.164Z,13.07
2022-12-05T02:25:33.113Z,13.05
2022-12-05T02:28:34.499Z,10.85
2022-12-05T02:31:11.649Z,11.48
2022-12-05T02:33:46.584Z,12.57
2022-12-05T02:36:19.268Z,12.23
2022-12-05T02:38:55.085Z,11.77
2022-12-05T02:41:28.951Z,12.55
2022-12-05T02:44:00.806Z,12.05
2022-12-05T02:46:32.266Z,12.23
2022-12-05T02:49:03.613Z,12.75
2022-12-05T02:51:34.738Z,12.02
2022-12-05T02:54:06.367Z,14.50
2022-12-05T02:56:35.707Z,12.30
2022-12-05T02:59:04.244Z,13.02
2022-12-05T03:01:33.782Z,14.40
2022-12-05T03:04:04.481Z,13.48
2022-12-05T03:06:35.822Z,14.27
2022-12-05T03:09:07.755Z,12.95
2022-12-05T03:11:41.625Z,11.23
2022-12-05T03:14:16.825Z,13.02
2022-12-05T03:16:50.849Z,11.63
2022-12-05T03:19:25.751Z,12.48
2022-12-05T03:21:58.417Z,11.80
2022-12-05T03:24:26.467Z,13.05
2022-12-05T03:27:02.735Z,12.23
2022-12-05T03:29:37.060Z,12.80
2022-12-05T03:32:11.879Z,11.52
2022-12-05T03:34:56.579Z,12.02
2022-12-05T03:37:31.510Z,12.75
2022-12-05T03:40:07.649Z,12.13
2022-12-05T03:42:40.395Z,11.85
2022-12-05T03:45:12.221Z,11.90
2022-12-05T03:47:50.006Z,12.27
2022-12-05T03:50:23.669Z,10.77
2022-12-05T03:53:19.137Z,12.27
2022-12-05T03:55:50.262Z,12.35
2022-12-05T03:58:25.099Z,12.27
2022-12-05T04:00:55.251Z,12.50
2022-12-05T04:03:39.093Z,11.57
2022-12-05T04:06:14.578Z,12.90
2022-12-05T04:08:47.632Z,11.88
2022-12-05T04:11:19.626Z,11.50
2022-12-05T04:13:50.537Z,13.25
2022-12-05T04:16:39.123Z,12.48
2022-12-05T04:19:13.053Z,11.60
2022-12-05T04:21:44.821Z,12.57
2022-12-05T04:24:32.852Z,11.75
2022-12-05T04:27:10.215Z,12.07
2022-12-05T04:29:45.626Z,12.02
2022-12-05T04:32:15.815Z,12.35
2022-12-05T04:34:50.704Z,11.88
2022-12-05T04:37:24.478Z,11.07
2022-12-05T04:39:56.785Z,13.27
2022-12-05T04:42:27.958Z,13.05
2022-12-05T04:45:01.052Z,11.98
2022-12-05T04:47:32.667Z,12.50
2022-12-05T04:50:03.785Z,12.15
2022-12-05T04:52:32.694Z,11.82
2022-12-05T04:55:06.355Z,11.63
2022-12-05T04:57:38.860Z,11.70
2022-12-05T05:00:09.327Z,12.20
2022-12-05T05:02:43.576Z,12.48
2022-12-05T05:05:16.446Z,10.23
2022-12-05T05:07:46.165Z,11.30
2022-12-05T05:10:17.357Z,9.82
2022-12-05T05:12:45.278Z,12.30
2022-12-05T05:15:12.986Z,11.55
2022-12-05T05:17:40.637Z,12.35
2022-12-05T05:20:28.008Z,11.88
2022-12-05T05:22:59.275Z,10.85
2022-12-05T05:25:27.449Z,12.00
2022-12-05T05:27:56.472Z,10.50
2022-12-05T05:30:26.042Z,11.85
2022-12-05T05:32:53.764Z,11.45
2022-12-05T05:35:21.595Z,12.00
2022-12-05T05:37:49.330Z,11.23
2022-12-05T05:40:18.728Z,11.57
2022-12-05T05:42:48.173Z,12.88
2022-12-05T05:45:17.425Z,13.00
2022-12-05T05:47:45.611Z,12.82
2022-12-05T05:50:19.455Z,13.98
2022-12-05T05:52:48.752Z,12.90
2022-12-05T05:55:17.920Z,11.40
2022-12-05T05:57:45.610Z,12.45
2022-12-05T06:00:14.823Z,10.95
2022-12-05T06:02:42.664Z,11.25
2022-12-05T06:05:10.556Z,10.90
2022-12-05T06:07:38.327Z,11.65
2022-12-05T06:10:07.128Z,11.70
2022-12-05T06:12:36.241Z,11.18
2022-12-05T06:15:05.047Z,11.40
2022-12-05T06:17:33.065Z,11.18
2022-12-05T06:20:01.022Z,10.80
2022-12-05T06:22:28.938Z,11.55
2022-12-05T06:24:56.605Z,10.80
2022-12-05T06:27:24.420Z,10.85
2022-12-05T06:29:54.013Z,10.48
2022-12-05T06:32:21.646Z,9.32
2022-12-05T06:34:49.297Z,11.10
2022-12-05T06:37:16.969Z,10.15
2022-12-05T06:39:44.691Z,10.57
2022-12-05T06:42:12.378Z,10.48
2022-12-05T06:44:40.595Z,10.43
2022-12-05T06:47:09.683Z,11.25
2022-12-05T06:49:38.260Z,10.10
2022-12-05T06:52:06.245Z,11.13
2022-12-05T06:54:34.144Z,12.15
2022-12-05T06:57:01.925Z,10.95
2022-12-05T06:59:29.665Z,11.00
2022-12-05T07:01:56.487Z,10.60
2022-12-05T07:04:25.580Z,10.60
2022-12-05T07:06:55.328Z,11.63
2022-12-05T07:09:45.856Z,10.93
2022-12-05T07:12:15.028Z,11.50
2022-12-05T07:14:48.188Z,10.73
2022-12-05T07:17:17.215Z,12.50
2022-12-05T07:19:49.032Z,12.02
2022-12-05T07:22:17.139Z,11.48
2022-12-05T07:24:45.319Z,10.45
2022-12-05T07:27:14.060Z,11.73
2022-12-05T07:29:41.926Z,10.63
2022-12-05T07:32:09.919Z,9.60
2022-12-05T07:34:38.747Z,10.57
2022-12-05T07:37:08.215Z,9.63
2022-12-05T07:39:36.016Z,9.38
2022-12-05T07:42:03.782Z,9.48
2022-12-05T07:44:32.128Z,9.80
2022-12-05T07:47:00.496Z,9.50
2022-12-05T07:49:28.419Z,10.95
2022-12-05T07:51:56.109Z,9.63
2022-12-05T07:54:25.281Z,8.45
2022-12-05T07:56:53.010Z,9.80
2022-12-05T07:59:20.939Z,8.88
2022-12-05T08:01:48.731Z,10.00
2022-12-05T08:04:16.512Z,12.25
2022-12-05T08:06:44.361Z,9.07
2022-12-05T08:09:12.106Z,8.48
2022-12-05T08:11:41.254Z,8.98
2022-12-05T08:14:10.705Z,9.23
2022-12-05T08:16:38.648Z,8.60
2022-12-05T08:19:08.696Z,9.30
2022-12-05T08:21:36.500Z,8.93
2022-12-05T08:24:06.025Z,8.55
2022-12-05T08:26:35.852Z,10.10
2022-12-05T08:29:07.042Z,9.32
2022-12-05T08:31:40.458Z,10.70
2022-12-05T08:34:08.340Z,9.25
2022-12-05T08:36:36.110Z,10.70
2022-12-05T08:39:06.658Z,8.80
2022-12-05T08:41:34.666Z,9.32
2022-12-05T08:44:06.520Z,9.68
2022-12-05T08:46:37.106Z,10.45
2022-12-05T08:49:05.936Z,9.43
2022-12-05T08:51:33.697Z,9.70
2022-12-05T08:54:03.561Z,9.77
2022-12-05T08:56:32.982Z,9.75
2022-12-05T08:59:05.803Z,9.25
2022-12-05T09:01:38.637Z,9.80
2022-12-05T09:04:07.321Z,9.02
2022-12-05T09:06:36.173Z,9.70
2022-12-05T09:09:07.438Z,9.27
2022-12-05T09:11:37.515Z,9.43
2022-12-05T09:14:05.901Z,8.30
2022-12-05T09:16:38.801Z,9.65
2022-12-05T09:19:07.717Z,9.23
2022-12-05T09:21:35.420Z,8.70
2022-12-05T09:24:03.197Z,8.45
2022-12-05T09:26:31.294Z,8.30
2022-12-05T09:28:59.227Z,8.40
2022-12-05T09:31:28.249Z,7.80
2022-12-05T09:33:57.771Z,7.95
2022-12-05T09:36:27.413Z,8.55
2022-12-05T09:38:56.233Z,7.10
2022-12-05T09:41:58.052Z,7.85
2022-12-05T09:44:37.817Z,8.00
2022-12-05T09:47:13.230Z,8.32
2022-12-05T09:49:51.151Z,8.35
2022-12-05T09:52:26.435Z,7.30
2022-12-05T09:54:54.667Z,7.50
2022-12-05T09:57:33.851Z,7.50
2022-12-05T10:00:04.215Z,7.45
2022-12-05T10:02:43.966Z,7.07
2022-12-05T10:05:19.637Z,6.80
2022-12-05T10:07:58.083Z,6.07
2022-12-05T10:10:33.980Z,6.70
2022-12-05T10:13:15.939Z,6.43
2022-12-05T10:15:47.743Z,6.70
2022-12-05T10:18:28.416Z,6.40
2022-12-05T10:21:04.518Z,6.45
2022-12-05T10:26:29.525Z,6.38
2022-12-05T10:29:03.636Z,6.18
2022-12-05T10:31:36.369Z,5.32
2022-12-05T10:34:10.327Z,5.35
2022-12-05T10:36:39.462Z,6.10
2022-12-05T10:39:11.422Z,8.82
2022-12-05T10:41:39.615Z,6.63
2022-12-05T10:44:07.448Z,5.22
2022-12-05T10:46:35.321Z,6.85
2022-12-05T10:49:03.755Z,6.28
2022-12-05T10:51:37.177Z,5.45
2022-12-05T10:54:18.073Z,5.80
2022-12-05T10:56:47.517Z,5.43
2022-12-05T10:59:16.867Z,4.72
2022-12-05T11:01:49.188Z,4.43
2022-12-05T11:04:27.103Z,3.95
2022-12-05T11:07:00.906Z,5.40
2022-12-05T11:09:32.178Z,4.97
2022-12-05T11:12:18.846Z,4.30
2022-12-05T11:14:59.173Z,4.78
2022-12-05T11:17:31.625Z,4.57
2022-12-05T11:19:59.389Z,4.53
2022-12-05T11:22:36.819Z,4.40
2022-12-05T11:25:25.917Z,4.20
2022-12-05T11:27:57.123Z,4.50
2022-12-05T11:30:30.215Z,4.40
2022-12-05T11:33:19.412Z,3.80
2022-12-05T11:35:47.628Z,4.30
2022-12-05T11:38:18.047Z,3.80
2022-12-05T11:40:54.560Z,2.80
2022-12-05T11:44:02.135Z,4.03
2022-12-05T11:46:41.716Z,3.58
2022-12-05T11:49:23.837Z,3.47
2022-12-05T11:51:59.347Z,3.90
2022-12-05T11:57:59.274Z,3.15
2022-12-05T12:00:34.784Z,3.60
2022-12-05T12:03:33.377Z,2.70
2022-12-05T12:06:20.831Z,3.00
2022-12-05T12:08:57.927Z,3.20
2022-12-05T12:11:36.051Z,3.00
2022-12-05T12:14:15.344Z,3.17
2022-12-05T12:16:54.821Z,2.80
2022-12-05T12:20:00.488Z,2.92
2022-12-05T12:22:56.106Z,2.85
2022-12-05T12:25:39.411Z,3.30
2022-12-05T12:28:21.390Z,3.35
2022-12-05T12:31:03.667Z,3.22
2022-12-05T12:33:36.199Z,3.10
2022-12-05T12:36:13.715Z,3.10
2022-12-05T12:38:56.150Z,2.78
2022-12-05T12:41:43.776Z,3.30
2022-12-05T12:44:41.453Z,3.28
2022-12-05T12:47:19.025Z,3.67
2022-12-05T12:49:57.796Z,3.30
2022-12-05T12:52:31.410Z,4.20
2022-12-05T12:55:12.936Z,3.67
2022-12-05T12:57:58.760Z,3.30
2022-12-05T13:00:36.709Z,3.45
2022-12-05T13:03:12.010Z,3.55
2022-12-05T13:05:45.167Z,3.20
2022-12-05T13:08:21.138Z,3.50
2022-12-05T13:10:49.856Z,4.18
2022-12-05T13:13:21.741Z,2.97
2022-12-05T13:15:52.225Z,4.18
2022-12-05T13:18:23.875Z,3.72
2022-12-05T13:20:54.782Z,4.25
2022-12-05T13:23:25.411Z,4.45
2022-12-05T13:25:55.415Z,3.78
2022-12-05T13:28:35.293Z,4.00
2022-12-05T13:31:05.100Z,4.40
2022-12-05T13:33:37.477Z,4.30
2022-12-05T13:36:29.137Z,3.90
2022-12-05T13:39:16.444Z,4.20
2022-12-05T13:42:03.793Z,3.42
2022-12-05T13:44:37.417Z,3.45
2022-12-05T13:47:10.137Z,4.45
2022-12-05T13:49:46.577Z,3.25
2022-12-05T13:52:20.490Z,3.92
2022-12-05T13:54:55.648Z,3.70
2022-12-05T13:57:52.408Z,3.33
2022-12-05T14:00:26.398Z,3.17
2022-12-05T14:02:59.215Z,2.80
2022-12-05T14:05:48.967Z,2.80
2022-12-05T14:08:54.140Z,3.25
2022-12-05T14:11:22.247Z,3.00
2022-12-05T14:13:50.337Z,4.13
2022-12-05T14:16:44.018Z,4.10
2022-12-05T14:19:34.391Z,2.80
2022-12-05T14:22:16.954Z,7.25
2022-12-05T14:24:55.772Z,10.23
2022-12-05T14:27:40.924Z,10.00
2022-12-05T14:30:21.070Z,8.63
2022-12-05T14:32:49.245Z,10.85
2022-12-05T14:35:20.859Z,11.57
2022-12-05T14:37:55.639Z,10.15
2022-12-05T14:40:30.360Z,11.73
2022-12-05T14:43:00.743Z,10.80
2022-12-05T14:45:35.668Z,12.98
2022-12-05T14:48:06.027Z,11.77
2022-12-05T14:50:39.434Z,10.70
2022-12-05T14:53:37.657Z,11.88
2022-12-05T14:56:21.693Z,12.38
2022-12-05T14:58:57.482Z,10.40
2022-12-05T15:01:28.783Z,11.20
2022-12-05T15:04:18.762Z,11.38
2022-12-05T15:06:50.981Z,11.45
2022-12-05T15:09:48.975Z,9.68
2022-12-05T15:12:20.853Z,11.77
2022-12-05T15:14:56.196Z,11.70
2022-12-05T15:17:29.535Z,11.00
2022-12-05T15:20:04.991Z,9.85
2022-12-05T15:22:37.546Z,11.63
2022-12-05T15:25:30.233Z,11.35
2022-12-05T15:28:01.477Z,12.00
2022-12-05T15:30:32.249Z,12.50
2022-12-05T15:33:00.881Z,12.25
2022-12-05T15:35:31.934Z,12.88
2022-12-05T15:38:03.623Z,11.80
2022-12-05T15:40:37.923Z,12.80
2022-12-05T15:43:29.281Z,12.07
2022-12-05T15:46:10.867Z,11.50
2022-12-05T15:48:38.698Z,11.77
2022-12-05T15:51:08.150Z,12.90
2022-12-05T15:53:41.876Z,12.93
2022-12-05T15:56:16.091Z,13.75
2022-12-05T15:58:47.362Z,13.25
2022-12-05T16:01:21.039Z,13.63
2022-12-05T16:03:54.278Z,13.45
2022-12-05T16:06:28.772Z,12.90
2022-12-05T16:08:58.351Z,12.57
2022-12-05T16:11:27.918Z,13.05
2022-12-05T16:13:58.505Z,11.02
2022-12-05T16:16:30.337Z,12.05
2022-12-05T16:18:59.860Z,12.75
2022-12-05T16:21:38.958Z,11.55
2022-12-05T16:24:09.037Z,12.43
2022-12-05T16:26:41.875Z,12.70
2022-12-05T16:29:28.213Z,13.13
2022-12-05T16:31:57.357Z,13.23
2022-12-05T16:34:26.058Z,12.18
2022-12-05T16:36:56.065Z,12.65
2022-12-05T16:39:25.541Z,13.07
2022-12-05T16:41:55.741Z,13.13
2022-12-05T16:45:04.640Z,11.70
2022-12-05T16:47:56.258Z,11.73
2022-12-05T16:50:33.069Z,12.85
2022-12-05T16:53:15.996Z,12.27
2022-12-05T16:55:45.672Z,12.20
2022-12-05T16:58:21.187Z,12.60
2022-12-05T17:00:48.869Z,12.63
2022-12-05T17:06:05.315Z,14.65
2022-12-05T17:08:33.047Z,14.65
2022-12-05T17:11:01.897Z,12.70
2022-12-05T17:13:32.268Z,12.95
2022-12-05T17:16:00.112Z,11.90
2022-12-05T17:18:31.736Z,13.32
2022-12-05T17:21:01.922Z,12.80
2022-12-05T17:23:29.649Z,14.60
2022-12-05T17:25:59.418Z,12.20
2022-12-05T17:28:27.227Z,12.07
2022-12-05T17:30:56.466Z,13.20
2022-12-05T17:33:24.284Z,13.30
2022-12-05T17:35:52.283Z,11.93
2022-12-05T17:38:20.413Z,12.93
2022-12-05T17:40:48.652Z,13.65
2022-12-05T17:43:21.398Z,13.85
2022-12-05T17:45:52.705Z,12.70
2022-12-05T17:48:22.436Z,13.52
2022-12-05T17:50:50.498Z,13.38
2022-12-05T17:53:20.939Z,12.70
2022-12-05T17:55:49.006Z,13.50
2022-12-05T17:58:17.010Z,14.43
2022-12-05T18:00:46.683Z,13.00
2022-12-05T18:03:16.272Z,11.80
2022-12-05T18:05:46.379Z,12.40
2022-12-05T18:08:16.029Z,12.32
2022-12-05T18:10:44.937Z,11.63
2022-12-05T18:13:13.126Z,12.45
2022-12-05T18:15:43.303Z,11.32
2022-12-05T18:18:15.165Z,13.52
2022-12-05T18:20:43.272Z,11.82
2022-12-05T18:23:12.700Z,12.75
2022-12-05T18:25:41.626Z,12.35
2022-12-05T18:28:09.354Z,13.45
2022-12-05T18:30:37.122Z,13.45
2022-12-05T18:33:04.953Z,12.35
2022-12-05T18:35:41.742Z,12.10
2022-12-05T18:38:10.772Z,12.95
2022-12-05T18:40:39.872Z,13.15
2022-12-05T18:43:07.753Z,14.50
2022-12-05T18:45:35.462Z,19.58
2022-12-05T18:48:31.372Z,21.70
2022-12-05T18:50:51.216Z,17.73
2022-12-05T18:53:19.104Z,15.00
2022-12-05T18:58:36.419Z,13.30
2022-12-05T19:01:07.150Z,14.88
2022-12-05T19:03:35.162Z,14.77
2022-12-05T19:06:03.773Z,15.18
2022-12-05T19:08:31.443Z,17.00
2022-12-05T19:11:05.291Z,16.13
2022-12-05T19:13:33.050Z,15.93
2022-12-05T19:16:02.793Z,16.30
2022-12-05T19:18:30.915Z,15.90
2022-12-05T19:20:58.941Z,14.40
2022-12-05T19:23:27.323Z,13.07
2022-12-05T19:25:56.670Z,14.50
2022-12-05T19:28:25.759Z,14.82
2022-12-05T19:31:00.272Z,14.48
2022-12-05T19:33:32.153Z,15.35
2022-12-05T19:36:03.283Z,15.90
2022-12-05T19:38:33.330Z,14.35
2022-12-05T19:41:01.372Z,14.10
2022-12-05T19:43:32.004Z,15.10
2022-12-05T19:45:59.981Z,13.10
2022-12-05T19:48:27.760Z,14.00
2022-12-05T19:50:56.599Z,14.40
2022-12-05T19:53:25.088Z,14.00
2022-12-05T19:55:53.062Z,12.68
2022-12-05T19:58:20.750Z,12.90
2022-12-05T20:00:52.419Z,12.07
2022-12-05T20:03:20.365Z,13.13
2022-12-05T20:05:57.394Z,11.80
2022-12-05T20:08:25.451Z,12.50
2022-12-05T20:10:54.882Z,13.38
2022-12-05T20:13:46.377Z,11.55
2022-12-05T20:16:14.530Z,12.60
2022-12-05T20:18:42.790Z,12.43
2022-12-05T20:21:12.299Z,18.08
2022-12-05T20:23:40.090Z,15.70
2022-12-05T20:26:09.792Z,14.27
2022-12-05T20:28:37.885Z,15.20
2022-12-05T20:31:07.272Z,14.43
2022-12-05T20:33:36.573Z,13.55
2022-12-05T20:36:05.610Z,12.30
2022-12-05T20:38:33.602Z,11.80
2022-12-05T20:41:01.972Z,12.75
2022-12-05T20:43:29.991Z,13.05
2022-12-05T20:45:58.450Z,11.98
2022-12-05T20:48:27.049Z,12.60
2022-12-05T20:50:56.330Z,12.07
2022-12-05T20:53:24.085Z,12.90
2022-12-05T20:55:51.864Z,11.82
2022-12-05T20:58:19.624Z,12.55
2022-12-05T21:00:47.306Z,11.60
2022-12-05T21:03:17.392Z,11.10
2022-12-05T21:05:45.328Z,11.57
2022-12-05T21:08:14.400Z,11.90
2022-12-05T21:10:45.430Z,12.60
2022-12-05T21:13:13.157Z,11.38
2022-12-05T21:15:41.081Z,12.10
2022-12-05T21:18:08.912Z,11.95
2022-12-05T21:20:41.923Z,11.45
2022-12-05T21:23:10.922Z,10.48
2022-12-05T21:25:40.306Z,11.63
2022-12-05T21:28:08.083Z,9.88
2022-12-05T21:30:35.831Z,10.40
2022-12-05T21:33:05.671Z,10.18
2022-12-05T21:35:33.573Z,11.02
2022-12-05T21:38:02.011Z,10.77
2022-12-05T21:40:29.931Z,9.05
2022-12-05T21:42:59.026Z,10.68
2022-12-05T21:45:27.247Z,11.65
2022-12-05T21:47:54.964Z,11.02
2022-12-05T21:50:22.778Z,11.30
2022-12-05T21:52:50.537Z,11.45
2022-12-05T21:55:18.514Z,12.05
2022-12-05T21:57:46.241Z,10.65
2022-12-05T22:00:16.053Z,12.20
2022-12-05T22:02:43.789Z,11.05
2022-12-05T22:05:11.496Z,12.43
2022-12-05T22:07:39.282Z,11.05
2022-12-05T22:10:08.251Z,10.90
2022-12-05T22:12:36.033Z,11.10
2022-12-05T22:15:03.749Z,11.88
2022-12-05T22:17:32.767Z,11.15
2022-12-05T22:20:00.945Z,10.98
2022-12-05T22:22:29.107Z,10.10
2022-12-05T22:24:57.156Z,11.70
2022-12-05T22:27:25.055Z,11.25
2022-12-05T22:29:53.045Z,10.52
2022-12-05T22:32:20.902Z,11.07
2022-12-05T22:34:50.038Z,12.18
2022-12-05T22:37:17.837Z,11.93
2022-12-05T22:39:45.548Z,11.52
2022-12-05T22:42:13.290Z,11.50
2022-12-05T22:44:41.155Z,11.23
2022-12-05T22:47:09.014Z,10.18
2022-12-05T22:49:36.820Z,11.25
2022-12-05T22:52:06.099Z,11.75
2022-12-05T22:54:33.731Z,11.88
2022-12-05T22:57:01.420Z,11.18
2022-12-05T22:59:29.072Z,12.15
2022-12-05T23:01:56.752Z,10.60
2022-12-05T23:04:24.660Z,10.52
2022-12-05T23:06:52.370Z,12.02
2022-12-05T23:09:21.875Z,11.35
2022-12-05T23:11:50.581Z,11.35
2022-12-05T23:14:18.388Z,13.13
2022-12-05T23:16:46.156Z,12.07
2022-12-05T23:19:13.866Z,10.45
2022-12-05T23:21:41.822Z,10.60
2022-12-05T23:24:11.091Z,11.00
2022-12-05T23:26:42.500Z,10.63
2022-12-05T23:29:12.011Z,10.85
2022-12-05T23:31:40.158Z,10.32
2022-12-05T23:34:08.633Z,11.00
2022-12-05T23:36:36.346Z,11.23
2022-12-05T23:39:04.703Z,11.10
2022-12-05T23:41:32.437Z,10.85
2022-12-05T23:44:01.612Z,9.73
2022-12-05T23:46:29.747Z,9.90
2022-12-05T23:48:58.068Z,8.73
2022-12-05T23:51:27.942Z,8.73
2022-12-05T23:53:57.515Z,9.73
2022-12-05T23:56:27.754Z,10.77
2022-12-05T23:58:56.957Z,10.10
